Time;durP1;ratioP1;P1;durP2;ratioP2;P2;SDS_P1;SDS_P2;PMS_P1;PMS_P2;Temp;Humidity;BMP_temperature;BMP_pressure;BME280_temperature;BME280_humidity;BME280_pressure;Samples;Min_cycle;Max_cycle;Signal;HPM_P1;HPM_P2
2023/11/14 00:00:05;;;;;;;15.85;4.32;;;12.60;99.90;;;;;;5093309;28;20043;-91
2023/11/14 00:02:31;;;;;;;17.45;4.32;;;12.60;99.90;;;;;;5093199;28;20376;-88
2023/11/14 00:04:57;;;;;;;24.92;5.70;;;12.60;99.90;;;;;;5091939;28;20128;-87
2023/11/14 00:07:22;;;;;;;22.17;4.90;;;12.60;99.90;;;;;;5080212;28;20455;-88
2023/11/14 00:09:48;;;;;;;20.67;5.50;;;12.70;99.90;;;;;;5076152;28;20423;-88
2023/11/14 00:12:14;;;;;;;20.75;5.20;;;12.60;99.90;;;;;;5059946;28;20044;-88
2023/11/14 00:14:47;;;;;;;17.42;4.10;;;12.60;99.90;;;;;;5096675;28;20464;-88
2023/11/14 00:17:13;;;;;;;19.77;5.55;;;12.60;99.90;;;;;;5097435;28;20055;-90
2023/11/14 00:19:42;;;;;;;23.50;5.32;;;12.60;99.90;;;;;;5090603;28;20048;-88
2023/11/14 00:22:09;;;;;;;20.88;4.85;;;12.60;99.90;;;;;;5067517;28;20024;-88
2023/11/14 00:24:35;;;;;;;24.65;5.55;;;12.60;99.90;;;;;;5077100;28;20031;-89
2023/11/14 00:27:01;;;;;;;21.73;5.15;;;12.60;99.90;;;;;;5096425;28;20024;-87
2023/11/14 00:29:27;;;;;;;24.60;5.38;;;12.60;99.90;;;;;;5076488;28;20028;-87
2023/11/14 00:31:53;;;;;;;18.40;5.25;;;12.60;99.90;;;;;;5096579;28;20024;-88
2023/11/14 00:34:19;;;;;;;24.23;5.82;;;12.60;99.90;;;;;;5062916;28;20024;-88
2023/11/14 00:36:46;;;;;;;21.00;5.30;;;12.60;99.90;;;;;;5097549;28;20458;-87
2023/11/14 00:39:16;;;;;;;20.45;5.43;;;12.60;99.90;;;;;;5079486;28;20141;-88
2023/11/14 00:41:45;;;;;;;22.67;5.68;;;12.60;99.90;;;;;;5096970;28;20479;-87
2023/11/14 00:44:11;;;;;;;19.23;4.60;;;12.70;99.90;;;;;;5095864;28;20105;-87
2023/11/14 00:46:37;;;;;;;20.25;4.95;;;12.70;99.90;;;;;;5096716;28;20024;-88
2023/11/14 00:49:03;;;;;;;18.08;4.80;;;12.70;99.90;;;;;;5087351;28;20086;-86
2023/11/14 00:51:29;;;;;;;20.80;5.18;;;12.70;99.90;;;;;;5089265;28;20418;-88
2023/11/14 00:53:56;;;;;;;23.63;5.30;;;12.70;99.90;;;;;;5080163;28;20503;-88
2023/11/14 00:56:22;;;;;;;18.77;4.95;;;12.70;99.90;;;;;;5079515;28;20028;-89
2023/11/14 00:58:48;;;;;;;17.20;4.97;;;12.70;99.90;;;;;;5091439;28;20056;-88
2023/11/14 01:01:13;;;;;;;20.63;5.65;;;12.70;99.90;;;;;;5059438;28;20056;-88
2023/11/14 01:03:39;;;;;;;15.85;4.60;;;12.70;99.90;;;;;;5085396;28;20025;-88
2023/11/14 01:06:05;;;;;;;18.85;4.88;;;12.80;99.90;;;;;;5059312;28;20025;-87
2023/11/14 01:08:31;;;;;;;20.33;4.93;;;12.80;99.90;;;;;;5084471;28;20028;-88
2023/11/14 01:10:57;;;;;;;21.33;5.43;;;12.80;99.90;;;;;;5079197;28;20035;-88
2023/11/14 01:13:23;;;;;;;19.77;4.20;;;12.80;99.90;;;;;;5092516;28;20020;-89
2023/11/14 01:15:49;;;;;;;21.38;5.85;;;12.80;99.90;;;;;;5093034;28;20028;-88
2023/11/14 01:18:15;;;;;;;19.20;5.05;;;12.80;99.90;;;;;;5116051;28;20027;-89
2023/11/14 01:20:41;;;;;;;23.58;5.47;;;12.80;99.90;;;;;;5119784;28;20024;-89
2023/11/14 01:23:07;;;;;;;20.27;5.53;;;12.80;99.90;;;;;;5102322;28;20012;-87
2023/11/14 01:25:33;;;;;;;20.20;5.35;;;12.80;99.90;;;;;;5118201;28;20046;-89
2023/11/14 01:27:59;;;;;;;24.00;5.95;;;12.80;99.90;;;;;;5096223;28;20024;-88
2023/11/14 01:30:24;;;;;;;19.95;5.32;;;12.80;99.90;;;;;;5075420;28;20028;-88
2023/11/14 01:32:50;;;;;;;24.55;5.60;;;12.80;99.90;;;;;;5095379;28;20056;-89
2023/11/14 01:35:16;;;;;;;18.33;4.80;;;12.80;99.90;;;;;;5078077;28;20021;-90
2023/11/14 01:37:41;;;;;;;25.25;5.82;;;12.80;99.90;;;;;;5095252;28;20031;-88
2023/11/14 01:40:08;;;;;;;19.95;5.20;;;12.80;99.90;;;;;;5078168;28;20036;-89
2023/11/14 01:42:34;;;;;;;20.88;4.93;;;12.80;99.90;;;;;;5096061;28;20043;-89
2023/11/14 01:44:59;;;;;;;18.75;4.68;;;12.80;99.90;;;;;;5094936;28;20032;-88
2023/11/14 01:47:26;;;;;;;19.98;4.93;;;12.80;99.90;;;;;;5074291;28;20103;-90
2023/11/14 01:49:52;;;;;;;23.10;5.90;;;12.80;99.90;;;;;;5078363;28;20035;-88
2023/11/14 01:52:19;;;;;;;23.33;5.30;;;12.80;99.90;;;;;;5077464;28;20035;-90
2023/11/14 01:54:45;;;;;;;17.63;4.85;;;12.80;99.90;;;;;;5094240;28;20055;-89
2023/11/14 01:57:13;;;;;;;16.05;4.57;;;12.80;99.90;;;;;;5094368;28;20020;-88
2023/11/14 01:59:41;;;;;;;20.40;5.63;;;12.80;99.90;;;;;;5094677;28;20165;-89
2023/11/14 02:02:08;;;;;;;23.27;5.97;;;12.80;99.90;;;;;;5091291;28;20027;-90
2023/11/14 02:04:35;;;;;;;26.35;6.32;;;12.80;99.90;;;;;;5094078;28;20463;-88
2023/11/14 02:07:01;;;;;;;23.80;5.88;;;12.80;99.90;;;;;;5075976;28;20050;-89
2023/11/14 02:09:27;;;;;;;26.75;6.10;;;12.80;99.90;;;;;;5073915;28;20523;-90
2023/11/14 02:11:55;;;;;;;21.52;5.30;;;12.80;99.90;;;;;;5074025;28;20426;-88
2023/11/14 02:14:21;;;;;;;20.25;4.75;;;12.80;99.90;;;;;;5080143;28;20055;-89
2023/11/14 02:16:55;;;;;;;21.88;5.10;;;12.80;99.90;;;;;;5076628;28;20025;-88
2023/11/14 02:19:21;;;;;;;20.63;5.45;;;12.80;99.90;;;;;;5085709;28;20120;-88
2023/11/14 02:21:48;;;;;;;17.85;5.15;;;12.80;99.90;;;;;;5072001;28;20025;-88
2023/11/14 02:24:19;;;;;;;19.98;4.90;;;12.70;99.90;;;;;;5073814;28;20043;-86
2023/11/14 02:26:54;;;;;;;16.85;5.07;;;12.70;99.90;;;;;;5080065;28;20020;-87
2023/11/14 02:29:21;;;;;;;26.38;6.70;;;12.70;99.90;;;;;;5091156;28;20448;-88
2023/11/14 02:31:50;;;;;;;19.15;5.30;;;12.80;99.90;;;;;;5083398;28;20021;-88
2023/11/14 02:34:17;;;;;;;21.27;4.72;;;12.70;99.90;;;;;;5082246;28;20017;-88
2023/11/14 02:36:42;;;;;;;19.58;5.25;;;12.70;99.90;;;;;;5091088;28;20120;-89
2023/11/14 02:39:08;;;;;;;27.50;6.20;;;12.80;99.90;;;;;;5092133;28;20511;-89
2023/11/14 02:41:35;;;;;;;21.00;6.55;;;12.70;99.90;;;;;;5074372;28;20425;-88
2023/11/14 02:44:01;;;;;;;21.40;5.05;;;12.70;99.90;;;;;;5088340;28;20100;-88
2023/11/14 02:46:27;;;;;;;23.92;5.55;;;12.80;99.90;;;;;;5095636;28;20527;-87
2023/11/14 02:48:53;;;;;;;25.30;5.78;;;12.80;99.90;;;;;;5078484;28;20043;-89
2023/11/14 02:51:19;;;;;;;19.48;5.00;;;12.80;99.90;;;;;;5084263;28;20035;-86
2023/11/14 02:53:46;;;;;;;24.30;5.53;;;12.80;99.90;;;;;;5081883;28;20135;-88
2023/11/14 02:56:33;;;;;;;26.52;5.70;;;12.80;99.90;;;;;;5075402;28;20024;-88
2023/11/14 02:59:00;;;;;;;22.25;6.20;;;12.80;99.90;;;;;;5074557;28;20042;-90
2023/11/14 03:01:31;;;;;;;22.90;5.90;;;12.80;99.90;;;;;;5074536;28;20021;-90
2023/11/14 03:03:59;;;;;;;24.83;5.00;;;12.80;99.90;;;;;;5074133;28;20028;-90
2023/11/14 03:06:27;;;;;;;30.10;5.97;;;12.80;99.90;;;;;;5074019;28;20024;-89
2023/11/14 03:08:53;;;;;;;27.17;5.60;;;12.80;99.90;;;;;;5073506;28;20059;-89
2023/11/14 03:11:22;;;;;;;21.05;5.68;;;12.80;99.90;;;;;;5073961;28;20060;-89
2023/11/14 03:13:54;;;;;;;22.80;6.25;;;12.80;99.90;;;;;;5073731;28;20074;-89
2023/11/14 03:16:22;;;;;;;24.75;5.18;;;12.80;99.90;;;;;;5057455;28;20035;-88
2023/11/14 03:18:53;;;;;;;21.45;5.50;;;12.80;99.90;;;;;;5074795;28;20028;-88
2023/11/14 03:21:24;;;;;;;22.58;5.50;;;12.90;99.90;;;;;;5073826;28;20028;-87
2023/11/14 03:23:53;;;;;;;19.08;5.30;;;12.80;99.90;;;;;;5073322;28;20020;-89
2023/11/14 03:26:32;;;;;;;22.52;5.60;;;12.80;99.90;;;;;;5073855;28;20066;-88
2023/11/14 03:29:07;;;;;;;22.02;5.97;;;12.90;99.90;;;;;;5074185;28;20043;-88
2023/11/14 03:31:33;;;;;;;32.42;6.13;;;12.90;99.90;;;;;;5073727;28;20464;-88
2023/11/14 03:33:58;;;;;;;22.33;5.63;;;12.90;99.90;;;;;;5072921;28;20023;-87
2023/11/14 03:36:24;;;;;;;23.63;5.82;;;12.90;99.90;;;;;;5073699;28;20528;-88
2023/11/14 03:38:53;;;;;;;25.90;5.72;;;12.90;99.90;;;;;;5074113;28;20037;-88
2023/11/14 03:41:19;;;;;;;18.92;4.97;;;12.90;99.90;;;;;;5078088;28;20037;-89
2023/11/14 03:43:47;;;;;;;19.40;5.47;;;12.90;99.90;;;;;;5060997;28;20465;-89
2023/11/14 03:46:13;;;;;;;18.77;4.88;;;12.80;99.90;;;;;;5078075;28;20349;-88
2023/11/14 03:48:41;;;;;;;22.85;5.90;;;12.90;99.90;;;;;;5077509;28;20032;-89
2023/11/14 03:51:09;;;;;;;24.17;4.97;;;12.90;99.90;;;;;;5078500;28;20025;-88
2023/11/14 03:53:49;;;;;;;18.70;4.82;;;12.90;99.90;;;;;;5077091;28;20048;-88
2023/11/14 03:56:17;;;;;;;23.42;5.35;;;12.90;99.90;;;;;;5061772;28;20076;-88
2023/11/14 03:58:46;;;;;;;24.33;5.97;;;12.90;99.90;;;;;;5077742;28;20037;-90
2023/11/14 04:01:12;;;;;;;24.48;5.50;;;12.90;99.90;;;;;;5077655;28;20028;-89
2023/11/14 04:03:43;;;;;;;28.38;5.82;;;12.90;99.90;;;;;;5077311;28;20024;-89
2023/11/14 04:06:15;;;;;;;22.27;5.68;;;12.90;99.90;;;;;;5077804;28;20027;-89
2023/11/14 04:08:44;;;;;;;23.50;5.65;;;12.90;99.90;;;;;;5079018;28;20222;-90
2023/11/14 04:11:13;;;;;;;22.08;5.40;;;12.90;99.90;;;;;;5079773;28;20024;-90
2023/11/14 04:13:42;;;;;;;23.08;5.75;;;12.90;99.90;;;;;;5090780;28;20078;-89
2023/11/14 04:16:08;;;;;;;19.33;4.93;;;12.90;99.90;;;;;;5091814;28;20025;-89
2023/11/14 04:18:43;;;;;;;25.42;5.88;;;12.90;99.90;;;;;;5088409;28;20140;-88
2023/11/14 04:21:10;;;;;;;23.88;6.25;;;12.90;99.90;;;;;;5089854;28;20020;-89
2023/11/14 04:23:41;;;;;;;28.17;6.88;;;12.90;99.90;;;;;;5086514;28;20020;-89
2023/11/14 04:26:10;;;;;;;27.02;5.70;;;12.90;99.90;;;;;;5082631;28;20035;-90
2023/11/14 04:28:38;;;;;;;20.60;4.95;;;12.90;99.90;;;;;;5060885;28;20029;-90
2023/11/14 04:31:08;;;;;;;25.80;5.40;;;13.00;99.90;;;;;;5091347;28;20043;-90
2023/11/14 04:33:34;;;;;;;23.90;5.70;;;13.00;99.90;;;;;;5087394;28;20028;-89
2023/11/14 04:36:07;;;;;;;22.30;6.18;;;13.00;99.90;;;;;;5078499;28;20032;-90
2023/11/14 04:38:37;;;;;;;22.92;5.35;;;13.00;99.90;;;;;;5077656;28;20029;-89
2023/11/14 04:41:12;;;;;;;28.70;5.40;;;13.00;99.90;;;;;;5077269;28;20025;-90
2023/11/14 04:43:38;;;;;;;22.88;5.22;;;13.00;99.90;;;;;;5076384;28;20383;-88
2023/11/14 04:46:07;;;;;;;21.42;5.63;;;13.00;99.90;;;;;;5060684;28;20031;-89
2023/11/14 04:48:37;;;;;;;20.70;5.68;;;13.10;99.90;;;;;;5075751;28;20031;-90
2023/11/14 04:51:03;;;;;;;21.35;5.15;;;13.00;99.90;;;;;;5074799;28;20084;-88
2023/11/14 04:53:32;;;;;;;19.52;5.28;;;13.00;99.90;;;;;;5059223;28;20057;-89
2023/11/14 04:55:58;;;;;;;27.98;6.38;;;13.00;99.90;;;;;;5075751;28;20020;-89
2023/11/14 04:58:28;;;;;;;22.58;5.38;;;13.00;99.90;;;;;;5059302;28;20120;-89
2023/11/14 05:00:53;;;;;;;23.65;6.30;;;13.00;99.90;;;;;;5058998;28;20024;-89
2023/11/14 05:03:22;;;;;;;21.55;5.68;;;13.10;99.90;;;;;;5059563;28;20097;-90
2023/11/14 05:05:50;;;;;;;28.20;5.60;;;13.10;99.90;;;;;;5077247;28;20016;-87
2023/11/14 05:08:16;;;;;;;20.08;4.90;;;13.10;99.90;;;;;;5076876;28;20105;-90
2023/11/14 05:10:52;;;;;;;25.20;5.95;;;13.10;99.90;;;;;;5075889;28;20056;-88
2023/11/14 05:13:18;;;;;;;31.75;6.55;;;13.10;99.90;;;;;;5060081;28;20107;-88
2023/11/14 05:15:43;;;;;;;22.85;5.10;;;13.10;99.90;;;;;;5075301;28;20059;-89
2023/11/14 05:18:14;;;;;;;21.58;6.00;;;13.10;99.90;;;;;;5076014;28;20029;-88
2023/11/14 05:20:42;;;;;;;21.90;5.43;;;13.10;99.90;;;;;;5075549;28;20020;-88
2023/11/14 05:23:08;;;;;;;20.35;5.55;;;13.10;99.90;;;;;;5075537;28;20048;-90
2023/11/14 05:25:37;;;;;;;22.33;5.13;;;13.10;99.90;;;;;;5075621;28;20024;-91
2023/11/14 05:28:06;;;;;;;18.70;5.05;;;13.10;99.90;;;;;;5075232;28;20029;-88
2023/11/14 05:30:36;;;;;;;21.33;4.97;;;13.10;99.90;;;;;;5075536;28;20042;-90
2023/11/14 05:33:04;;;;;;;21.95;5.38;;;13.10;99.90;;;;;;5075783;28;20029;-91
2023/11/14 05:35:38;;;;;;;22.25;5.50;;;13.10;99.90;;;;;;5075075;28;20497;-90
2023/11/14 05:38:14;;;;;;;;;;;;;;;;;;;;;
2023/11/14 05:40:42;;;;;;;29.65;6.35;;;13.20;99.90;;;;;;5076557;28;20017;-90
2023/11/14 05:43:10;;;;;;;22.52;5.45;;;13.10;99.90;;;;;;5075951;28;20071;-89
2023/11/14 05:45:38;;;;;;;21.50;5.10;;;13.10;99.90;;;;;;5075974;28;20024;-90
2023/11/14 05:48:07;;;;;;;26.88;5.60;;;13.20;99.90;;;;;;5075352;28;20017;-90
2023/11/14 05:50:35;;;;;;;23.48;5.60;;;13.20;99.90;;;;;;5075318;28;20020;-88
2023/11/14 05:53:03;;;;;;;24.70;5.70;;;13.20;99.90;;;;;;5075278;28;20480;-89
2023/11/14 05:55:31;;;;;;;20.48;5.38;;;13.20;99.90;;;;;;5058633;28;20139;-89
2023/11/14 05:58:05;;;;;;;23.70;5.03;;;13.20;99.90;;;;;;5075042;28;20029;-88
2023/11/14 06:00:37;;;;;;;24.83;5.85;;;13.20;99.90;;;;;;5058995;28;20388;-88
2023/11/14 06:03:05;;;;;;;23.75;5.75;;;13.20;99.90;;;;;;5058966;28;20110;-92
2023/11/14 06:05:33;;;;;;;19.02;4.80;;;13.10;99.90;;;;;;5074905;28;20460;-89
2023/11/14 06:08:01;;;;;;;24.38;5.82;;;13.20;99.90;;;;;;5075730;28;20094;-89
2023/11/14 06:10:30;;;;;;;27.67;6.05;;;13.20;99.90;;;;;;5077643;28;20028;-90
2023/11/14 06:13:04;;;;;;;23.42;5.72;;;13.20;99.90;;;;;;5081188;28;20533;-89
2023/11/14 06:15:30;;;;;;;23.40;5.72;;;13.20;99.90;;;;;;5083546;28;20020;-89
2023/11/14 06:18:03;;;;;;;18.20;4.80;;;13.20;99.90;;;;;;5081613;28;20032;-88
2023/11/14 06:20:29;;;;;;;25.08;5.78;;;13.20;99.90;;;;;;5077802;28;20046;-88
2023/11/14 06:22:55;;;;;;;19.02;5.55;;;13.20;99.90;;;;;;5074241;28;20048;-88
2023/11/14 06:25:27;;;;;;;23.10;4.95;;;13.20;99.90;;;;;;5074745;28;20502;-89
2023/11/14 06:27:55;;;;;;;24.17;5.22;;;13.20;99.90;;;;;;5058561;28;20036;-89
2023/11/14 06:30:24;;;;;;;26.27;6.03;;;13.20;99.90;;;;;;5074774;28;20025;-88
2023/11/14 06:32:55;;;;;;;19.80;5.43;;;13.20;99.90;;;;;;5074492;28;20141;-89
2023/11/14 06:35:21;;;;;;;18.98;4.90;;;13.20;99.90;;;;;;5074389;28;20024;-89
2023/11/14 06:37:50;;;;;;;23.52;5.38;;;13.10;99.90;;;;;;5057826;28;20042;-89
2023/11/14 06:40:25;;;;;;;24.13;5.88;;;13.20;99.90;;;;;;5075231;28;20460;-90
2023/11/14 06:42:54;;;;;;;20.48;5.20;;;13.10;99.90;;;;;;5075109;28;20024;-90
2023/11/14 06:45:22;;;;;;;20.33;5.03;;;13.20;99.90;;;;;;5074483;28;20020;-89
2023/11/14 06:47:49;;;;;;;22.20;4.85;;;13.20;99.90;;;;;;5074299;28;20084;-89
2023/11/14 06:50:15;;;;;;;22.88;5.38;;;13.20;99.90;;;;;;5074037;28;20075;-88
2023/11/14 06:52:46;;;;;;;23.70;4.80;;;13.10;99.90;;;;;;5074495;28;20025;-89
2023/11/14 06:55:11;;;;;;;;;;;13.20;99.90;;;;;;5057620;28;20066;-88
2023/11/14 06:57:40;;;;;;;22.20;5.70;;;13.10;99.90;;;;;;5074399;28;19912;-90
2023/11/14 07:00:12;;;;;;;23.60;5.60;;;13.10;99.90;;;;;;5057370;28;20024;-88
2023/11/14 07:02:38;;;;;;;22.92;5.78;;;13.10;99.90;;;;;;5074136;28;20074;-89
2023/11/14 07:05:04;;;;;;;26.92;6.00;;;13.10;99.90;;;;;;5073365;28;20020;-90
2023/11/14 07:07:30;;;;;;;21.77;4.88;;;13.20;99.90;;;;;;5073684;28;20033;-91
2023/11/14 07:09:58;;;;;;;22.88;5.18;;;13.10;99.90;;;;;;5073758;28;20444;-88
2023/11/14 07:12:24;;;;;;;21.23;5.18;;;13.20;99.90;;;;;;5056756;28;20029;-89
2023/11/14 07:14:52;;;;;;;22.27;4.70;;;13.10;99.90;;;;;;5074410;28;20076;-89
2023/11/14 07:17:20;;;;;;;22.85;5.32;;;13.10;99.90;;;;;;5056936;28;20123;-88
2023/11/14 07:19:54;;;;;;;20.63;5.13;;;13.10;99.90;;;;;;5073914;28;20036;-88
2023/11/14 07:22:23;;;;;;;27.50;5.50;;;13.20;99.90;;;;;;5057002;28;20021;-89
2023/11/14 07:24:52;;;;;;;26.02;6.55;;;13.20;99.90;;;;;;5073897;28;20020;-88
2023/11/14 07:27:18;;;;;;;28.40;6.47;;;13.10;99.90;;;;;;5073953;28;20096;-90
2023/11/14 07:29:46;;;;;;;24.30;6.15;;;13.10;99.90;;;;;;5073690;28;20083;-88
2023/11/14 07:32:12;;;;;;;20.30;5.45;;;13.10;99.90;;;;;;5074619;28;20064;-89
2023/11/14 07:34:40;;;;;;;23.10;5.35;;;13.10;99.90;;;;;;5075712;28;20032;-88
2023/11/14 07:37:08;;;;;;;23.88;5.47;;;13.10;99.90;;;;;;5074891;28;20040;-89
2023/11/14 07:39:37;;;;;;;28.35;6.53;;;13.20;99.90;;;;;;5074820;28;20021;-90
2023/11/14 07:42:05;;;;;;;22.83;5.15;;;13.10;99.90;;;;;;5079875;28;20048;-89
2023/11/14 07:44:33;;;;;;;18.88;5.60;;;13.10;99.90;;;;;;5097268;28;20063;-88
2023/11/14 07:47:10;;;;;;;20.25;4.93;;;13.20;99.90;;;;;;5096510;28;20051;-89
2023/11/14 07:49:39;;;;;;;23.17;6.15;;;13.20;99.90;;;;;;5096049;28;20032;-89
2023/11/14 07:52:11;;;;;;;20.40;5.13;;;13.20;99.90;;;;;;5065251;28;20045;-89
2023/11/14 07:54:37;;;;;;;19.45;5.28;;;13.20;99.90;;;;;;5079485;28;20087;-89
2023/11/14 07:57:05;;;;;;;20.77;5.80;;;13.20;99.90;;;;;;5075255;28;20032;-88
2023/11/14 07:59:33;;;;;;;17.88;4.72;;;13.20;99.90;;;;;;5057023;28;20484;-89
2023/11/14 08:02:02;;;;;;;19.50;5.28;;;13.20;99.90;;;;;;5056608;28;20040;-88
2023/11/14 08:04:28;;;;;;;22.00;4.80;;;13.20;99.90;;;;;;5056305;28;20063;-89
2023/11/14 08:06:53;;;;;;;24.10;6.03;;;13.20;99.90;;;;;;5056190;28;20028;-88
2023/11/14 08:09:20;;;;;;;22.80;5.20;;;13.20;99.90;;;;;;5073054;28;20024;-88
2023/11/14 08:11:46;;;;;;;17.05;4.38;;;13.20;99.90;;;;;;5073665;28;20028;-89
2023/11/14 08:14:22;;;;;;;;;;;;;;;;;;;;;
2023/11/14 08:16:51;;;;;;;17.52;4.50;;;13.20;99.90;;;;;;5074462;28;20047;-88
2023/11/14 08:19:23;;;;;;;18.48;4.22;;;13.20;99.90;;;;;;5074485;28;20108;-89
2023/11/14 08:21:54;;;;;;;16.73;4.85;;;13.20;99.90;;;;;;5073040;28;20521;-88
2023/11/14 08:24:20;;;;;;;20.05;5.47;;;13.20;99.90;;;;;;5073014;28;20059;-88
2023/11/14 08:26:53;;;;;;;16.90;4.55;;;13.20;99.90;;;;;;5075639;28;20021;-88
2023/11/14 08:29:25;;;;;;;16.30;5.35;;;13.10;99.90;;;;;;5077520;28;20479;-90
2023/11/14 08:31:57;;;;;;;23.17;4.70;;;13.10;99.90;;;;;;5059929;28;20027;-89
2023/11/14 08:34:23;;;;;;;19.98;5.32;;;13.10;99.90;;;;;;5060187;28;20037;-88
2023/11/14 08:36:55;;;;;;;21.63;5.07;;;13.10;99.90;;;;;;5076457;28;20113;-88
2023/11/14 08:39:29;;;;;;;15.50;5.15;;;13.10;99.90;;;;;;5076315;28;20124;-89
2023/11/14 08:41:55;;;;;;;16.33;4.50;;;13.00;99.90;;;;;;5060166;28;20500;-88
2023/11/14 08:44:24;;;;;;;22.33;4.93;;;13.00;99.90;;;;;;5076063;28;20037;-89
2023/11/14 08:46:59;;;;;;;21.75;4.80;;;13.00;99.90;;;;;;5075744;28;20462;-89
2023/11/14 08:49:35;;;;;;;19.23;4.57;;;13.00;99.90;;;;;;5076092;28;20062;-88
2023/11/14 08:52:01;;;;;;;23.15;5.43;;;13.00;99.90;;;;;;5076176;28;20028;-89
2023/11/14 08:54:31;;;;;;;18.25;4.30;;;13.10;99.90;;;;;;5075843;28;20044;-87
2023/11/14 08:57:02;;;;;;;20.70;4.97;;;13.10;99.90;;;;;;5076558;28;20028;-89
2023/11/14 08:59:27;;;;;;;19.35;5.38;;;13.10;99.90;;;;;;5075841;28;20036;-89
2023/11/14 09:01:56;;;;;;;19.42;5.40;;;13.10;99.90;;;;;;5076394;28;20071;-87
2023/11/14 09:04:24;;;;;;;22.55;5.43;;;13.10;99.90;;;;;;5061345;28;20463;-87
2023/11/14 09:06:53;;;;;;;24.27;5.32;;;13.10;99.90;;;;;;5076500;28;20025;-88
2023/11/14 09:09:23;;;;;;;17.45;4.65;;;13.10;99.90;;;;;;5076084;28;20036;-88
2023/11/14 09:11:49;;;;;;;22.52;5.53;;;13.10;99.90;;;;;;5075953;28;20020;-87
2023/11/14 09:14:26;;;;;;;;;;;;;;;;;;;;;
2023/11/14 09:16:53;;;;;;;21.70;4.95;;;13.10;99.90;;;;;;5077292;28;20050;-89
2023/11/14 09:19:22;;;;;;;20.95;5.20;;;13.10;99.90;;;;;;5059698;28;20040;-88
2023/11/14 09:22:06;;;;;;;;;;;;;;;;;;;;;
2023/11/14 09:24:32;;;;;;;21.02;5.07;;;13.20;99.90;;;;;;5094205;28;20055;-89
2023/11/14 09:27:02;;;;;;;20.27;5.18;;;13.20;99.90;;;;;;5081632;28;20008;-90
2023/11/14 09:29:34;;;;;;;18.88;5.15;;;13.20;99.90;;;;;;5087536;28;20051;-89
2023/11/14 09:32:03;;;;;;;17.58;4.93;;;13.20;99.90;;;;;;5063660;28;20033;-89
2023/11/14 09:34:30;;;;;;;19.52;5.43;;;13.20;99.90;;;;;;5075733;28;20032;-91
2023/11/14 09:37:04;;;;;;;19.55;5.00;;;13.30;99.90;;;;;;5074562;28;20032;-89
2023/11/14 09:39:31;;;;;;;20.45;4.63;;;13.30;99.90;;;;;;5076018;28;20025;-89
2023/11/14 09:41:58;;;;;;;22.42;5.57;;;13.40;99.90;;;;;;5074739;28;20555;-89
2023/11/14 09:44:26;;;;;;;21.67;4.93;;;13.40;99.90;;;;;;5074923;28;20020;-89
2023/11/14 09:46:52;;;;;;;15.27;4.82;;;13.40;99.90;;;;;;5074650;28;20476;-90
2023/11/14 09:49:22;;;;;;;22.27;6.00;;;13.50;99.90;;;;;;5058291;28;20033;-89
2023/11/14 09:51:50;;;;;;;17.95;4.38;;;13.50;99.90;;;;;;5058554;28;20025;-88
2023/11/14 09:54:19;;;;;;;23.52;5.40;;;13.60;99.90;;;;;;5074581;28;20048;-89
2023/11/14 09:56:49;;;;;;;21.27;5.25;;;13.60;99.90;;;;;;5075260;28;20017;-88
2023/11/14 09:59:23;;;;;;;19.77;4.97;;;13.70;99.90;;;;;;5075065;28;20029;-88
2023/11/14 10:01:51;;;;;;;20.08;5.07;;;13.70;99.90;;;;;;5074786;28;20024;-89
2023/11/14 10:04:17;;;;;;;23.77;5.22;;;13.70;99.90;;;;;;5074926;28;20031;-89
2023/11/14 10:06:46;;;;;;;21.77;4.90;;;13.70;99.90;;;;;;5074942;28;20016;-88
2023/11/14 10:09:18;;;;;;;18.02;4.53;;;13.80;99.90;;;;;;5074783;28;20033;-88
2023/11/14 10:11:46;;;;;;;25.73;5.68;;;13.80;99.90;;;;;;5074701;28;20029;-91
2023/11/14 10:14:13;;;;;;;22.65;5.43;;;13.80;99.90;;;;;;5074574;28;20484;-89
2023/11/14 10:16:42;;;;;;;24.00;5.40;;;13.90;99.90;;;;;;5074721;28;20063;-89
2023/11/14 10:19:16;;;;;;;21.90;5.57;;;13.90;99.90;;;;;;5075807;28;20028;-88
2023/11/14 10:21:45;;;;;;;22.30;5.53;;;14.00;99.90;;;;;;5075223;28;20533;-89
2023/11/14 10:24:12;;;;;;;18.17;4.95;;;14.00;99.90;;;;;;5074640;28;20020;-89
2023/11/14 10:26:54;;;;;;;17.63;4.82;;;14.00;99.90;;;;;;5075979;28;20104;-88
2023/11/14 10:29:23;;;;;;;21.65;4.82;;;14.10;99.90;;;;;;5075467;28;20031;-87
2023/11/14 10:31:50;;;;;;;21.08;5.45;;;14.10;99.90;;;;;;5075899;28;20030;-87
2023/11/14 10:34:37;;;;;;;19.40;4.43;;;14.10;99.90;;;;;;5075928;28;20021;-88
2023/11/14 10:37:03;;;;;;;20.98;5.32;;;14.20;99.90;;;;;;5075994;28;20052;-88
2023/11/14 10:39:29;;;;;;;22.80;5.25;;;14.20;99.90;;;;;;5076049;28;20040;-88
2023/11/14 10:41:57;;;;;;;20.50;4.95;;;14.10;99.90;;;;;;5074010;28;20048;-88
2023/11/14 10:44:23;;;;;;;20.50;5.35;;;14.20;99.90;;;;;;5074701;28;20013;-88
2023/11/14 10:47:01;;;;;;;25.63;5.35;;;14.20;99.90;;;;;;5074794;28;20021;-88
2023/11/14 10:49:45;;;;;;;15.32;4.82;;;14.20;99.90;;;;;;5073496;28;20186;-89
2023/11/14 10:52:11;;;;;;;21.35;4.63;;;14.20;99.90;;;;;;5074098;28;20029;-88
2023/11/14 10:54:38;;;;;;;20.83;5.05;;;14.20;99.90;;;;;;5074394;28;20484;-88
2023/11/14 10:57:04;;;;;;;26.95;5.95;;;14.20;99.90;;;;;;5074413;28;20033;-88
2023/11/14 10:59:31;;;;;;;21.30;5.05;;;14.20;99.90;;;;;;5073906;28;20130;-90
2023/11/14 11:02:18;;;;;;;19.15;4.95;;;14.20;99.90;;;;;;5075698;28;20033;-89
2023/11/14 11:04:44;;;;;;;26.95;6.28;;;14.20;99.90;;;;;;5097182;28;20047;-89
2023/11/14 11:07:10;;;;;;;22.67;5.25;;;14.20;99.90;;;;;;5096256;28;20032;-89
2023/11/14 11:09:36;;;;;;;21.23;5.15;;;14.20;99.90;;;;;;5082150;28;20032;-88
2023/11/14 11:12:03;;;;;;;14.30;4.78;;;14.20;99.90;;;;;;5078359;28;20101;-89
2023/11/14 11:14:34;;;;;;;18.73;4.47;;;14.20;99.90;;;;;;5075686;28;20092;-89
2023/11/14 11:17:03;;;;;;;;;;;14.20;99.90;;;;;;5074382;28;20498;-88
2023/11/14 11:19:32;;;;;;;19.92;4.93;;;14.20;99.90;;;;;;5073477;28;19916;-88
2023/11/14 11:22:06;;;;;;;16.08;4.70;;;14.20;99.90;;;;;;5073450;28;20380;-90
2023/11/14 11:24:32;;;;;;;14.18;4.53;;;14.30;99.90;;;;;;5073601;28;20029;-88
2023/11/14 11:27:31;;;;;;;18.48;4.68;;;14.30;99.90;;;;;;5073314;28;20082;-88
2023/11/14 11:29:59;;;;;;;15.23;4.03;;;14.30;99.90;;;;;;5075249;28;20020;-90
2023/11/14 11:32:31;;;;;;;17.92;5.05;;;14.30;99.90;;;;;;5073180;28;20024;-89
2023/11/14 11:35:15;;;;;;;18.00;5.20;;;14.30;99.90;;;;;;5057307;28;20039;-90
2023/11/14 11:38:12;;;;;;;16.30;4.65;;;14.30;99.90;;;;;;5074670;28;20066;-87
2023/11/14 11:41:06;;;;;;;14.77;4.47;;;14.20;99.90;;;;;;5074863;28;20021;-89
2023/11/14 11:43:38;;;;;;;18.27;5.00;;;14.20;99.90;;;;;;5073618;28;20028;-89
2023/11/14 11:46:33;;;;;;;20.00;4.90;;;14.20;99.90;;;;;;5073322;28;20028;-90
2023/11/14 11:49:22;;;;;;;16.52;4.82;;;14.10;99.90;;;;;;5074581;28;20024;-89
2023/11/14 11:51:57;;;;;;;17.08;4.53;;;14.10;99.90;;;;;;5073410;28;20035;-88
2023/11/14 11:54:31;;;;;;;14.32;4.03;;;14.10;99.90;;;;;;5073107;28;20045;-91
2023/11/14 11:57:13;;;;;;;18.15;4.03;;;14.00;99.90;;;;;;5074406;28;20055;-88
2023/11/14 11:59:51;;;;;;;13.80;3.70;;;14.00;99.90;;;;;;5073335;28;20067;-90
2023/11/14 12:02:19;;;;;;;19.15;4.13;;;14.00;99.90;;;;;;5076784;28;20021;-90
2023/11/14 12:04:52;;;;;;;16.05;4.20;;;13.90;99.90;;;;;;5077374;28;20020;-90
2023/11/14 12:07:21;;;;;;;15.75;4.03;;;13.90;99.90;;;;;;5077225;28;20103;-90
2023/11/14 12:09:53;;;;;;;16.65;4.80;;;13.90;99.90;;;;;;5077278;28;20068;-89
2023/11/14 12:12:19;;;;;;;13.23;4.18;;;13.90;99.90;;;;;;5077698;28;20028;-90
2023/11/14 12:14:47;;;;;;;13.15;4.30;;;13.90;99.90;;;;;;5077046;28;20074;-89
2023/11/14 12:17:14;;;;;;;17.10;4.60;;;13.90;99.90;;;;;;5077200;28;20017;-90
2023/11/14 12:19:40;;;;;;;15.27;4.35;;;13.90;99.90;;;;;;5077160;28;20099;-89
2023/11/14 12:22:07;;;;;;;16.75;5.28;;;13.90;99.90;;;;;;5076948;28;20120;-91
2023/11/14 12:24:33;;;;;;;12.00;4.00;;;13.90;99.90;;;;;;5078224;28;20028;-89
2023/11/14 12:26:59;;;;;;;18.08;5.47;;;13.90;99.90;;;;;;5078525;28;20021;-91
2023/11/14 12:29:28;;;;;;;13.48;4.50;;;13.90;99.90;;;;;;5076824;28;20525;-90
2023/11/14 12:31:55;;;;;;;18.15;5.13;;;13.90;99.90;;;;;;5076522;28;20029;-90
2023/11/14 12:34:30;;;;;;;17.50;5.00;;;13.90;99.90;;;;;;5076750;28;20017;-90
2023/11/14 12:37:20;;;;;;;17.30;4.78;;;13.90;99.90;;;;;;5078128;28;20020;-92
2023/11/14 12:40:16;;;;;;;16.73;4.55;;;13.90;99.90;;;;;;5077119;28;20029;-91
2023/11/14 12:42:44;;;;;;;14.77;4.22;;;13.90;99.90;;;;;;5085035;28;20017;-90
2023/11/14 12:45:15;;;;;;;15.82;4.38;;;13.80;99.90;;;;;;5098592;28;20024;-90
2023/11/14 12:47:41;;;;;;;13.90;4.85;;;13.90;99.90;;;;;;5078982;28;20384;-89
2023/11/14 12:50:09;;;;;;;13.27;4.38;;;13.90;99.90;;;;;;5085057;28;20403;-90
2023/11/14 12:52:44;;;;;;;14.18;4.18;;;13.90;99.90;;;;;;5078889;28;20040;-89